Time;durP1;ratioP1;P1;durP2;ratioP2;P2;SDS_P1;SDS_P2;PMS_P1;PMS_P2;Temp;Humidity;BMP_temperature;BMP_pressure;BME280_temperature;BME280_humidity;BME280_pressure;Samples;Min_cycle;Max_cycle;Signal;HPM_P1;HPM_P2
2021/03/17 00:00:55;;;;;;;3.25;1.80;;;;;;;;;;4975907;28;20046;-65
2021/03/17 00:03:23;;;;;;;2.97;1.75;;;;;;;;;;4973950;28;20078;-65
2021/03/17 00:05:51;;;;;;;3.50;2.03;;;;;;;;;;4969526;28;20054;-65
2021/03/17 00:08:19;;;;;;;3.17;2.05;;;;;;;;;;4969185;28;20058;-65
2021/03/17 00:10:47;;;;;;;3.90;1.67;;;;;;;;;;4969677;28;20511;-65
2021/03/17 00:13:16;;;;;;;3.50;1.80;;;;;;;;;;4979703;28;20066;-65
2021/03/17 00:15:44;;;;;;;3.47;1.67;;;;;;;;;;4982305;28;20549;-65
2021/03/17 00:18:12;;;;;;;2.40;1.50;;;;;;;;;;4981325;28;20050;-65
2021/03/17 00:20:41;;;;;;;5.93;2.40;;;;;;;;;;4977191;28;20058;-65
2021/03/17 00:23:09;;;;;;;4.55;1.92;;;;;;;;;;4967867;28;20407;-65
2021/03/17 00:25:37;;;;;;;3.45;1.90;;;;;;;;;;4974444;28;20061;-65
2021/03/17 00:28:08;;;;;;;4.03;1.58;;;;;;;;;;4956457;28;20051;-65
2021/03/17 00:30:36;;;;;;;2.78;1.73;;;;;;;;;;4970219;28;20046;-65
2021/03/17 00:33:05;;;;;;;4.15;1.65;;;;;;;;;;4978477;28;20110;-65
2021/03/17 00:35:33;;;;;;;2.85;1.75;;;;;;;;;;4965987;28;20046;-65
2021/03/17 00:38:01;;;;;;;2.92;2.00;;;;;;;;;;4970255;28;20057;-66
2021/03/17 00:40:29;;;;;;;3.08;1.75;;;;;;;;;;4968750;28;20058;-65
2021/03/17 00:42:56;;;;;;;2.90;1.83;;;;;;;;;;4973893;28;20046;-65
2021/03/17 00:45:24;;;;;;;3.83;1.70;;;;;;;;;;4973793;28;20082;-65
2021/03/17 00:47:51;;;;;;;4.25;2.55;;;;;;;;;;4976866;28;20392;-65
2021/03/17 00:50:19;;;;;;;3.80;2.00;;;;;;;;;;4970339;28;20435;-65
2021/03/17 00:52:53;;;;;;;4.03;1.85;;;;;;;;;;4975567;28;20054;-65
2021/03/17 00:55:22;;;;;;;3.75;2.53;;;;;;;;;;4971800;28;20080;-65
2021/03/17 00:57:49;;;;;;;4.00;2.50;;;;;;;;;;4977690;28;20134;-65
2021/03/17 01:00:17;;;;;;;3.97;2.47;;;;;;;;;;4977342;28;20149;-65
2021/03/17 01:02:45;;;;;;;6.93;2.65;;;;;;;;;;4951030;29;20047;-65
2021/03/17 01:05:15;;;;;;;3.72;2.30;;;;;;;;;;4970904;28;20791;-65
2021/03/17 01:07:42;;;;;;;4.25;2.60;;;;;;;;;;4976703;28;20050;-65
2021/03/17 01:10:11;;;;;;;5.28;2.90;;;;;;;;;;4970745;28;20129;-65
2021/03/17 01:12:41;;;;;;;7.57;3.08;;;;;;;;;;4977328;28;20151;-65
2021/03/17 01:15:11;;;;;;;8.65;4.20;;;;;;;;;;4969680;28;20406;-65
2021/03/17 01:17:38;;;;;;;9.80;4.40;;;;;;;;;;4975691;28;22497;-65
2021/03/17 01:20:06;;;;;;;7.13;3.88;;;;;;;;;;4972057;28;20487;-65
2021/03/17 01:22:33;;;;;;;8.25;3.97;;;;;;;;;;4973200;28;20141;-65
2021/03/17 01:25:01;;;;;;;8.48;4.22;;;;;;;;;;4971885;28;20580;-65
2021/03/17 01:27:28;;;;;;;7.40;4.00;;;;;;;;;;4980314;28;20057;-66
2021/03/17 01:29:56;;;;;;;7.93;3.90;;;;;;;;;;4973041;28;20050;-66
2021/03/17 01:32:24;;;;;;;11.05;4.00;;;;;;;;;;4982849;28;20043;-65
2021/03/17 01:34:51;;;;;;;7.20;3.60;;;;;;;;;;4967073;28;20047;-64
2021/03/17 01:37:18;;;;;;;6.95;3.67;;;;;;;;;;4986955;28;20830;-65
2021/03/17 01:39:46;;;;;;;5.65;2.53;;;;;;;;;;4986663;28;20494;-65
2021/03/17 01:42:14;;;;;;;2.30;1.65;;;;;;;;;;4987644;28;20045;-65
2021/03/17 01:44:44;;;;;;;3.15;2.03;;;;;;;;;;4973497;28;20579;-65
2021/03/17 01:47:12;;;;;;;4.45;2.58;;;;;;;;;;4972511;28;20089;-65
2021/03/17 01:49:40;;;;;;;3.33;1.65;;;;;;;;;;4982630;28;20092;-65
2021/03/17 01:52:08;;;;;;;3.30;1.77;;;;;;;;;;4978433;28;20173;-65
2021/03/17 01:54:35;;;;;;;3.90;1.73;;;;;;;;;;4983467;28;20125;-65
2021/03/17 01:57:02;;;;;;;2.22;1.60;;;;;;;;;;4986516;28;20081;-65
2021/03/17 01:59:30;;;;;;;2.42;1.67;;;;;;;;;;4972819;28;20153;-65
2021/03/17 02:01:58;;;;;;;2.70;1.60;;;;;;;;;;4977869;28;20108;-65
2021/03/17 02:04:26;;;;;;;2.75;1.65;;;;;;;;;;4963809;28;20054;-65
2021/03/17 02:06:53;;;;;;;3.15;1.98;;;;;;;;;;4965799;28;20070;-65
2021/03/17 02:09:21;;;;;;;2.97;1.88;;;;;;;;;;4970904;28;20078;-66
2021/03/17 02:11:53;;;;;;;3.58;1.90;;;;;;;;;;4974084;28;20050;-66
2021/03/17 02:14:31;;;;;;;2.88;1.85;;;;;;;;;;4976322;28;20125;-66
2021/03/17 02:17:03;;;;;;;3.53;2.33;;;;;;;;;;4971817;28;20078;-66
2021/03/17 02:19:48;;;;;;;3.20;1.88;;;;;;;;;;4968053;28;20039;-66
2021/03/17 02:22:27;;;;;;;3.00;2.00;;;;;;;;;;4976104;28;20125;-66
2021/03/17 02:24:59;;;;;;;4.05;2.53;;;;;;;;;;4974956;28;20058;-66
2021/03/17 02:27:54;;;;;;;4.72;2.65;;;;;;;;;;4975490;28;20053;-66
2021/03/17 02:30:28;;;;;;;3.80;2.30;;;;;;;;;;4982145;28;20125;-65
2021/03/17 02:33:23;;;;;;;4.67;2.50;;;;;;;;;;4975802;28;20101;-65
2021/03/17 02:35:53;;;;;;;4.72;2.45;;;;;;;;;;4936101;28;20126;-66
2021/03/17 02:38:22;;;;;;;4.30;2.60;;;;;;;;;;4977275;28;20062;-65
2021/03/17 02:40:51;;;;;;;4.35;2.70;;;;;;;;;;4967418;28;20455;-65
2021/03/17 02:43:20;;;;;;;5.38;2.90;;;;;;;;;;4974347;28;20085;-65
2021/03/17 02:45:50;;;;;;;3.25;2.60;;;;;;;;;;4975207;28;20372;-65
2021/03/17 02:48:21;;;;;;;5.47;2.92;;;;;;;;;;4975742;28;20486;-65
2021/03/17 02:50:49;;;;;;;5.85;3.45;;;;;;;;;;4977752;28;20042;-65
2021/03/17 02:53:20;;;;;;;4.20;2.50;;;;;;;;;;4971532;28;20439;-65
2021/03/17 02:55:49;;;;;;;4.50;2.80;;;;;;;;;;4976152;28;20412;-65
2021/03/17 02:58:17;;;;;;;6.55;3.03;;;;;;;;;;4976152;28;20067;-65
2021/03/17 03:00:45;;;;;;;5.25;3.03;;;;;;;;;;4973654;28;20046;-65
2021/03/17 03:03:15;;;;;;;6.47;3.10;;;;;;;;;;4967096;28;20058;-65
2021/03/17 03:05:43;;;;;;;5.03;2.83;;;;;;;;;;4971987;28;20053;-65
2021/03/17 03:08:11;;;;;;;5.13;2.83;;;;;;;;;;4971639;28;20093;-66
2021/03/17 03:10:40;;;;;;;5.72;3.25;;;;;;;;;;4974281;28;20097;-66
2021/03/17 03:13:07;;;;;;;4.95;3.08;;;;;;;;;;4973135;28;20058;-66
2021/03/17 03:15:35;;;;;;;5.28;3.15;;;;;;;;;;4975597;28;20148;-66
2021/03/17 03:18:04;;;;;;;5.82;3.28;;;;;;;;;;4974308;28;20116;-66
2021/03/17 03:20:33;;;;;;;5.82;3.35;;;;;;;;;;4974636;28;20049;-66
2021/03/17 03:23:01;;;;;;;5.70;3.20;;;;;;;;;;4972277;28;20154;-66
2021/03/17 03:25:29;;;;;;;6.72;3.38;;;;;;;;;;4973282;28;20142;-66
2021/03/17 03:27:57;;;;;;;5.90;3.78;;;;;;;;;;4972839;28;20140;-66
2021/03/17 03:30:25;;;;;;;5.85;3.72;;;;;;;;;;4974174;28;20137;-66
2021/03/17 03:32:53;;;;;;;7.13;4.22;;;;;;;;;;4968636;28;20080;-65
2021/03/17 03:35:22;;;;;;;6.53;4.13;;;;;;;;;;4973232;28;20046;-65
2021/03/17 03:37:50;;;;;;;6.47;4.25;;;;;;;;;;4966561;28;20058;-65
2021/03/17 03:40:18;;;;;;;8.38;4.65;;;;;;;;;;4974112;28;20050;-65
2021/03/17 03:42:47;;;;;;;9.80;4.97;;;;;;;;;;4975913;28;20129;-65
2021/03/17 03:45:17;;;;;;;11.00;5.53;;;;;;;;;;4976049;28;20046;-65
2021/03/17 03:47:46;;;;;;;8.55;5.63;;;;;;;;;;4972977;28;20062;-65
2021/03/17 03:50:16;;;;;;;9.65;5.40;;;;;;;;;;4974237;28;20054;-65
2021/03/17 03:52:46;;;;;;;13.10;6.63;;;;;;;;;;4972370;28;20060;-65
2021/03/17 03:55:19;;;;;;;11.00;6.10;;;;;;;;;;4975466;28;20055;-65
2021/03/17 03:57:48;;;;;;;12.82;7.03;;;;;;;;;;4971313;28;20058;-65
2021/03/17 04:00:18;;;;;;;12.48;6.22;;;;;;;;;;4973671;28;20446;-65
2021/03/17 04:02:47;;;;;;;12.57;6.93;;;;;;;;;;4972310;28;20062;-65
2021/03/17 04:05:18;;;;;;;11.73;6.60;;;;;;;;;;4971243;28;20133;-65
2021/03/17 04:07:47;;;;;;;13.63;6.60;;;;;;;;;;4965973;28;20074;-65
2021/03/17 04:10:15;;;;;;;12.05;6.50;;;;;;;;;;4972543;28;20046;-65
2021/03/17 04:12:43;;;;;;;11.88;6.45;;;;;;;;;;4971101;28;20284;-65
2021/03/17 04:15:12;;;;;;;10.45;5.75;;;;;;;;;;4973663;28;20043;-65
2021/03/17 04:17:44;;;;;;;9.82;6.43;;;;;;;;;;4971109;28;20052;-65
2021/03/17 04:20:14;;;;;;;11.90;6.28;;;;;;;;;;4972995;28;20050;-65
2021/03/17 04:22:44;;;;;;;13.80;5.93;;;;;;;;;;4969177;28;20098;-65
2021/03/17 04:25:13;;;;;;;14.82;6.57;;;;;;;;;;4974790;28;20046;-65
2021/03/17 04:27:41;;;;;;;9.48;5.65;;;;;;;;;;4972684;28;20078;-65
2021/03/17 04:30:10;;;;;;;17.48;7.45;;;;;;;;;;4972742;28;20134;-65
2021/03/17 04:32:38;;;;;;;13.50;6.90;;;;;;;;;;4964424;28;20138;-65
2021/03/17 04:35:08;;;;;;;16.75;6.32;;;;;;;;;;4967061;28;20046;-65
2021/03/17 04:37:35;;;;;;;11.88;6.35;;;;;;;;;;4964901;28;20086;-65
2021/03/17 04:40:04;;;;;;;14.60;6.00;;;;;;;;;;4969947;28;20263;-65
2021/03/17 04:42:32;;;;;;;15.18;6.07;;;;;;;;;;4971793;28;20515;-65
2021/03/17 04:44:59;;;;;;;13.75;5.82;;;;;;;;;;4970806;28;20072;-65
2021/03/17 04:47:27;;;;;;;11.60;5.60;;;;;;;;;;4973363;28;20133;-65
2021/03/17 04:49:56;;;;;;;12.07;5.80;;;;;;;;;;4972332;28;20108;-65
2021/03/17 04:52:25;;;;;;;15.95;5.72;;;;;;;;;;4971774;28;20051;-65
2021/03/17 04:54:52;;;;;;;13.25;5.68;;;;;;;;;;4972642;28;20077;-65
2021/03/17 04:57:21;;;;;;;14.00;6.20;;;;;;;;;;4973146;28;20055;-65
2021/03/17 04:59:49;;;;;;;12.82;5.95;;;;;;;;;;4972667;28;20108;-65
2021/03/17 05:02:19;;;;;;;10.15;5.70;;;;;;;;;;4973455;28;20250;-65
2021/03/17 05:04:48;;;;;;;12.05;5.65;;;;;;;;;;4978073;28;20042;-64
2021/03/17 05:07:16;;;;;;;15.40;6.00;;;;;;;;;;4968571;28;20142;-65
2021/03/17 05:09:44;;;;;;;11.25;5.10;;;;;;;;;;4956517;28;20466;-65
2021/03/17 05:12:14;;;;;;;13.18;5.63;;;;;;;;;;4951251;28;20054;-65
2021/03/17 05:14:41;;;;;;;10.15;5.57;;;;;;;;;;4954292;28;20055;-65
2021/03/17 05:17:09;;;;;;;13.25;6.85;;;;;;;;;;4949084;28;20055;-65
2021/03/17 05:19:37;;;;;;;11.60;5.63;;;;;;;;;;4940726;29;20130;-65
2021/03/17 05:22:06;;;;;;;11.55;5.45;;;;;;;;;;4954723;29;20110;-65
2021/03/17 05:24:33;;;;;;;16.08;6.45;;;;;;;;;;4954996;29;20098;-65
2021/03/17 05:27:04;;;;;;;15.82;6.18;;;;;;;;;;4954482;29;20051;-65
2021/03/17 05:29:31;;;;;;;13.90;5.72;;;;;;;;;;4965211;28;20129;-65
2021/03/17 05:31:59;;;;;;;10.77;5.65;;;;;;;;;;4970591;28;20064;-65
2021/03/17 05:34:26;;;;;;;12.77;5.95;;;;;;;;;;4964725;28;20055;-65
2021/03/17 05:36:54;;;;;;;11.82;5.88;;;;;;;;;;4974089;28;20085;-65
2021/03/17 05:39:21;;;;;;;12.90;6.35;;;;;;;;;;4964178;28;20082;-65
2021/03/17 05:41:48;;;;;;;9.40;5.55;;;;;;;;;;4956937;28;20162;-65
2021/03/17 05:44:17;;;;;;;15.70;6.60;;;;;;;;;;4953034;29;20059;-65
2021/03/17 05:46:45;;;;;;;12.65;6.43;;;;;;;;;;4961264;28;20054;-65
2021/03/17 05:49:12;;;;;;;12.43;6.03;;;;;;;;;;4987210;28;20057;-65
2021/03/17 05:51:40;;;;;;;11.95;5.65;;;;;;;;;;4963487;28;20145;-65
2021/03/17 05:54:07;;;;;;;22.10;7.30;;;;;;;;;;4958986;28;20046;-65
2021/03/17 05:56:37;;;;;;;14.93;6.85;;;;;;;;;;4972749;28;20146;-65
2021/03/17 05:59:04;;;;;;;17.13;7.65;;;;;;;;;;4972847;28;20092;-65
2021/03/17 06:01:33;;;;;;;17.95;7.75;;;;;;;;;;4973484;28;20055;-65
2021/03/17 06:04:03;;;;;;;17.38;7.80;;;;;;;;;;4972525;28;20078;-64
2021/03/17 06:06:31;;;;;;;19.50;7.90;;;;;;;;;;4973533;28;20059;-64
2021/03/17 06:09:00;;;;;;;18.17;8.63;;;;;;;;;;4963674;28;20070;-65
2021/03/17 06:11:28;;;;;;;15.35;7.50;;;;;;;;;;4972281;28;20125;-64
2021/03/17 06:13:58;;;;;;;14.25;7.60;;;;;;;;;;4968173;28;20085;-64
2021/03/17 06:16:25;;;;;;;18.95;10.30;;;;;;;;;;4970930;28;20098;-65
2021/03/17 06:18:55;;;;;;;16.77;8.07;;;;;;;;;;4970745;28;20494;-65
2021/03/17 06:21:23;;;;;;;14.55;7.65;;;;;;;;;;4971746;28;20141;-65
2021/03/17 06:23:52;;;;;;;16.63;8.45;;;;;;;;;;4972825;28;20098;-64
2021/03/17 06:26:19;;;;;;;18.42;8.32;;;;;;;;;;4971250;28;20047;-64
2021/03/17 06:28:47;;;;;;;19.40;8.60;;;;;;;;;;4966995;28;20082;-64
2021/03/17 06:31:19;;;;;;;21.45;8.45;;;;;;;;;;4969297;28;20510;-64
2021/03/17 06:33:47;;;;;;;17.80;9.02;;;;;;;;;;4968937;28;20467;-64
2021/03/17 06:36:16;;;;;;;19.92;10.32;;;;;;;;;;4966443;28;20149;-70
2021/03/17 06:38:44;;;;;;;20.45;9.48;;;;;;;;;;4965752;28;20500;-69
2021/03/17 06:41:13;;;;;;;17.10;9.13;;;;;;;;;;4959834;28;20427;-69
2021/03/17 06:43:41;;;;;;;20.52;10.02;;;;;;;;;;4967914;28;20484;-69
2021/03/17 06:46:09;;;;;;;18.63;10.50;;;;;;;;;;4967547;28;20501;-69
2021/03/17 06:48:56;;;;;;;22.80;9.07;;;;;;;;;;4968246;28;20133;-69
2021/03/17 06:51:25;;;;;;;24.63;11.35;;;;;;;;;;4968719;28;20055;-70
2021/03/17 06:53:53;;;;;;;25.30;10.30;;;;;;;;;;4961377;28;20137;-61
2021/03/17 06:56:21;;;;;;;23.77;11.02;;;;;;;;;;4963919;28;20055;-62
2021/03/17 06:58:49;;;;;;;25.05;9.95;;;;;;;;;;4964830;28;20050;-62
2021/03/17 07:01:32;;;;;;;27.05;10.73;;;;;;;;;;4968222;28;20055;-62
2021/03/17 07:04:00;;;;;;;22.98;10.02;;;;;;;;;;4962580;28;20186;-62
2021/03/17 07:06:29;;;;;;;21.20;10.32;;;;;;;;;;4964915;28;20043;-62
2021/03/17 07:08:57;;;;;;;23.80;11.50;;;;;;;;;;4967439;28;20398;-62
2021/03/17 07:11:29;;;;;;;23.13;10.05;;;;;;;;;;4962962;28;20129;-62
2021/03/17 07:13:59;;;;;;;20.42;9.90;;;;;;;;;;4967938;28;20511;-62
2021/03/17 07:16:35;;;;;;;25.38;11.13;;;;;;;;;;4967471;28;20043;-62
2021/03/17 07:19:39;;;;;;;23.80;11.40;;;;;;;;;;4967249;28;20047;-62
2021/03/17 07:22:09;;;;;;;21.35;11.07;;;;;;;;;;4955097;28;20063;-62
2021/03/17 07:24:36;;;;;;;22.52;10.93;;;;;;;;;;4963693;28;20165;-62
2021/03/17 07:27:14;;;;;;;23.40;11.70;;;;;;;;;;4969863;28;20059;-62
2021/03/17 07:29:41;;;;;;;27.85;12.05;;;;;;;;;;4964923;28;20113;-63
2021/03/17 07:32:09;;;;;;;25.38;11.10;;;;;;;;;;4970780;28;20146;-62
2021/03/17 07:34:38;;;;;;;22.70;11.30;;;;;;;;;;4969778;28;20050;-62
2021/03/17 07:37:06;;;;;;;25.08;12.45;;;;;;;;;;4964472;28;20059;-63
2021/03/17 07:39:35;;;;;;;22.25;11.40;;;;;;;;;;4965417;28;20078;-62
2021/03/17 07:42:04;;;;;;;25.67;12.15;;;;;;;;;;4970294;28;20043;-63
2021/03/17 07:44:32;;;;;;;22.85;11.18;;;;;;;;;;4968376;28;20058;-63
2021/03/17 07:47:00;;;;;;;33.05;13.13;;;;;;;;;;4966455;28;20503;-63
2021/03/17 07:49:40;;;;;;;25.60;10.88;;;;;;;;;;4969877;28;20052;-63
2021/03/17 07:52:10;;;;;;;33.08;13.32;;;;;;;;;;4969555;28;20054;-62
2021/03/17 07:54:38;;;;;;;28.45;12.32;;;;;;;;;;4965607;28;20043;-63
2021/03/17 07:57:07;;;;;;;26.83;13.25;;;;;;;;;;4962415;28;20055;-63
2021/03/17 07:59:35;;;;;;;23.33;11.73;;;;;;;;;;4961519;28;20095;-62
2021/03/17 08:02:03;;;;;;;25.83;11.30;;;;;;;;;;4968249;28;20054;-63
2021/03/17 08:04:33;;;;;;;31.70;13.82;;;;;;;;;;4970117;28;20218;-63
2021/03/17 08:07:01;;;;;;;24.90;12.68;;;;;;;;;;4970258;28;20047;-63
2021/03/17 08:09:29;;;;;;;24.67;12.02;;;;;;;;;;4962116;28;20074;-63
2021/03/17 08:11:58;;;;;;;29.05;13.27;;;;;;;;;;4969948;28;20046;-63
2021/03/17 08:14:26;;;;;;;30.45;12.27;;;;;;;;;;4970177;28;20039;-62
2021/03/17 08:16:55;;;;;;;24.67;11.55;;;;;;;;;;4970168;28;20244;-62
2021/03/17 08:19:24;;;;;;;24.90;12.23;;;;;;;;;;4968248;28;20414;-63
2021/03/17 08:21:53;;;;;;;27.27;11.68;;;;;;;;;;4968422;28;20392;-62
2021/03/17 08:24:42;;;;;;;21.35;11.93;;;;;;;;;;4965055;28;20064;-62
2021/03/17 08:27:22;;;;;;;25.60;11.48;;;;;;;;;;4967783;28;20402;-62
2021/03/17 08:29:51;;;;;;;26.98;11.70;;;;;;;;;;4952537;28;20042;-63
2021/03/17 08:32:20;;;;;;;23.65;10.45;;;;;;;;;;4969744;28;20047;-64
2021/03/17 08:34:55;;;;;;;27.02;10.15;;;;;;;;;;4968405;28;20057;-63
2021/03/17 08:37:38;;;;;;;24.20;11.10;;;;;;;;;;4969136;28;20165;-63
2021/03/17 08:40:07;;;;;;;26.02;10.82;;;;;;;;;;4961984;28;20064;-63
2021/03/17 08:42:36;;;;;;;22.83;10.82;;;;;;;;;;4970891;28;20495;-62
2021/03/17 08:45:19;;;;;;;22.65;10.07;;;;;;;;;;4970766;28;20053;-62
2021/03/17 08:47:48;;;;;;;26.00;10.27;;;;;;;;;;4967155;28;20047;-63
2021/03/17 08:50:31;;;;;;;21.15;9.55;;;;;;;;;;4958402;28;20057;-62
2021/03/17 08:52:59;;;;;;;28.63;11.43;;;;;;;;;;4969470;28;20047;-63
2021/03/17 08:55:35;;;;;;;22.55;10.18;;;;;;;;;;4967246;28;20483;-63
2021/03/17 08:58:06;;;;;;;21.08;9.50;;;;;;;;;;4963776;28;20074;-64
2021/03/17 09:01:04;;;;;;;22.27;9.45;;;;;;;;;;4968744;28;20115;-62
2021/03/17 09:03:38;;;;;;;21.42;9.40;;;;;;;;;;4970598;28;20388;-63
2021/03/17 09:06:11;;;;;;;15.90;8.52;;;;;;;;;;4960816;28;20539;-63
2021/03/17 09:08:49;;;;;;;17.00;7.63;;;;;;;;;;4968799;28;20051;-64
2021/03/17 09:11:36;;;;;;;19.02;8.55;;;;;;;;;;4968223;28;20046;-63
2021/03/17 09:14:06;;;;;;;15.80;8.05;;;;;;;;;;4968980;28;20475;-63
2021/03/17 09:16:34;;;;;;;18.95;8.30;;;;;;;;;;4969108;28;20051;-63
2021/03/17 09:19:05;;;;;;;20.05;7.88;;;;;;;;;;4965350;28;20051;-63
2021/03/17 09:21:34;;;;;;;17.40;8.55;;;;;;;;;;4956760;28;20050;-63
2021/03/17 09:24:02;;;;;;;18.02;8.35;;;;;;;;;;4969143;28;20140;-63
2021/03/17 09:26:31;;;;;;;18.33;8.32;;;;;;;;;;4967654;28;20047;-63
2021/03/17 09:29:08;;;;;;;20.48;8.73;;;;;;;;;;4968833;28;20094;-63
2021/03/17 09:31:39;;;;;;;18.13;8.23;;;;;;;;;;4968174;28;20047;-63
2021/03/17 09:34:07;;;;;;;23.45;8.75;;;;;;;;;;4966900;28;20599;-63
2021/03/17 09:36:35;;;;;;;20.05;8.10;;;;;;;;;;4962667;28;20086;-63
2021/03/17 09:39:03;;;;;;;23.30;8.68;;;;;;;;;;4969147;28;20050;-63
2021/03/17 09:41:35;;;;;;;25.25;8.35;;;;;;;;;;4967121;28;20078;-63
2021/03/17 09:44:04;;;;;;;17.67;6.60;;;;;;;;;;4967767;28;20059;-63
2021/03/17 09:46:33;;;;;;;20.50;6.40;;;;;;;;;;4967366;28;20122;-63
2021/03/17 09:49:05;;;;;;;16.63;6.40;;;;;;;;;;4969879;28;20054;-63
2021/03/17 09:51:34;;;;;;;11.10;5.15;;;;;;;;;;4966075;28;20158;-63
2021/03/17 09:54:03;;;;;;;10.43;4.68;;;;;;;;;;4973248;28;20482;-63
2021/03/17 09:56:36;;;;;;;11.35;4.18;;;;;;;;;;4971936;28;20479;-63
2021/03/17 09:59:17;;;;;;;8.88;3.95;;;;;;;;;;4971771;28;20101;-63
2021/03/17 10:01:49;;;;;;;14.75;4.57;;;;;;;;;;4966566;28;20470;-63
2021/03/17 10:04:22;;;;;;;10.13;4.32;;;;;;;;;;4970027;28;20043;-63
2021/03/17 10:06:51;;;;;;;11.40;4.82;;;;;;;;;;4972140;28;20074;-63
2021/03/17 10:09:19;;;;;;;13.05;5.38;;;;;;;;;;4969801;28;20050;-63
2021/03/17 10:11:48;;;;;;;11.95;5.85;;;;;;;;;;4965686;28;20090;-63
2021/03/17 10:14:17;;;;;;;16.92;6.47;;;;;;;;;;4963813;28;20716;-63
2021/03/17 10:16:45;;;;;;;13.88;6.55;;;;;;;;;;4963960;28;20059;-63
2021/03/17 10:19:14;;;;;;;14.50;7.07;;;;;;;;;;4970128;28;20050;-63
2021/03/17 10:21:49;;;;;;;15.52;7.18;;;;;;;;;;4964983;28;20042;-64
2021/03/17 10:24:30;;;;;;;10.00;5.85;;;;;;;;;;4971440;28;20105;-64
2021/03/17 10:26:58;;;;;;;14.05;6.03;;;;;;;;;;4968687;28;20047;-64
2021/03/17 10:29:26;;;;;;;17.20;7.35;;;;;;;;;;4967324;28;20055;-64
2021/03/17 10:31:56;;;;;;;14.77;7.38;;;;;;;;;;4967730;28;20055;-64
2021/03/17 10:34:26;;;;;;;14.23;7.38;;;;;;;;;;4966851;28;20311;-63
2021/03/17 10:36:55;;;;;;;15.77;7.72;;;;;;;;;;4973534;28;20125;-63
2021/03/17 10:39:30;;;;;;;19.50;8.23;;;;;;;;;;4971069;28;20423;-63
2021/03/17 10:41:58;;;;;;;17.75;7.90;;;;;;;;;;4972616;28;20069;-62
2021/03/17 10:44:27;;;;;;;16.45;8.18;;;;;;;;;;4967150;28;20391;-63
2021/03/17 10:46:59;;;;;;;18.17;8.43;;;;;;;;;;4957807;28;20215;-63
2021/03/17 10:49:28;;;;;;;18.38;7.40;;;;;;;;;;4971412;28;20047;-62
2021/03/17 10:52:08;;;;;;;15.75;7.13;;;;;;;;;;4973227;28;20051;-62
2021/03/17 10:54:37;;;;;;;16.77;7.50;;;;;;;;;;4972171;28;20387;-63
2021/03/17 10:57:18;;;;;;;13.30;6.88;;;;;;;;;;4970705;28;20049;-62
2021/03/17 10:59:46;;;;;;;17.58;7.80;;;;;;;;;;4970923;28;20078;-62
2021/03/17 11:02:19;;;;;;;15.98;7.10;;;;;;;;;;4968136;28;20471;-62
2021/03/17 11:05:05;;;;;;;19.35;8.18;;;;;;;;;;4973252;28;20058;-62
2021/03/17 11:07:52;;;;;;;18.33;7.75;;;;;;;;;;4967995;28;20055;-62
2021/03/17 11:10:50;;;;;;;15.82;7.25;;;;;;;;;;4972139;28;20094;-63
2021/03/17 11:13:32;;;;;;;9.77;5.68;;;;;;;;;;4982697;28;20050;-63
2021/03/17 11:16:01;;;;;;;11.23;5.25;;;;;;;;;;4962790;28;20133;-63
2021/03/17 11:18:31;;;;;;;9.75;5.18;;;;;;;;;;4963864;28;20158;-63
2021/03/17 11:21:00;;;;;;;7.47;4.35;;;;;;;;;;4961102;28;20050;-63
2021/03/17 11:23:30;;;;;;;11.30;4.97;;;;;;;;;;4971037;28;20047;-63
2021/03/17 11:25:58;;;;;;;13.60;5.07;;;;;;;;;;4972907;28;20498;-63
2021/03/17 11:28:27;;;;;;;11.10;5.60;;;;;;;;;;4970575;28;20076;-62
2021/03/17 11:30:57;;;;;;;10.32;4.68;;;;;;;;;;4973757;28;20050;-62
2021/03/17 11:33:25;;;;;;;10.10;4.80;;;;;;;;;;4971615;28;20050;-62
2021/03/17 11:35:53;;;;;;;9.63;4.85;;;;;;;;;;4965997;28;20058;-62
2021/03/17 11:38:22;;;;;;;12.45;6.05;;;;;;;;;;4972195;28;20055;-62
2021/03/17 11:40:51;;;;;;;13.20;5.28;;;;;;;;;;4971942;28;20078;-63
2021/03/17 11:43:20;;;;;;;12.02;6.50;;;;;;;;;;4969357;28;20193;-62
2021/03/17 11:45:49;;;;;;;12.85;5.68;;;;;;;;;;4968109;28;20077;-62
2021/03/17 11:48:18;;;;;;;7.97;4.65;;;;;;;;;;4953225;28;20042;-63
2021/03/17 11:50:47;;;;;;;9.27;5.05;;;;;;;;;;4968193;28;20047;-62
2021/03/17 11:53:16;;;;;;;11.60;5.30;;;;;;;;;;4970039;28;20042;-63
2021/03/17 11:55:44;;;;;;;11.40;4.90;;;;;;;;;;4972822;28;20430;-62
2021/03/17 11:58:12;;;;;;;10.23;4.20;;;;;;;;;;4969447;28;20047;-62
2021/03/17 12:00:40;;;;;;;5.57;3.03;;;;;;;;;;4972134;28;20105;-63
2021/03/17 12:03:11;;;;;;;9.95;4.20;;;;;;;;;;4970227;28;20066;-62
2021/03/17 12:05:40;;;;;;;9.27;4.68;;;;;;;;;;4970780;28;20169;-62
2021/03/17 12:08:08;;;;;;;10.75;4.40;;;;;;;;;;4970968;28;20050;-63
2021/03/17 12:10:36;;;;;;;10.13;4.45;;;;;;;;;;4968510;28;20126;-62
2021/03/17 12:13:05;;;;;;;7.22;3.80;;;;;;;;;;4967082;28;20130;-63
2021/03/17 12:15:33;;;;;;;9.98;4.45;;;;;;;;;;4971206;28;20043;-63
2021/03/17 12:18:01;;;;;;;10.55;3.97;;;;;;;;;;4969724;28;20467;-62
2021/03/17 12:20:30;;;;;;;12.68;4.18;;;;;;;;;;4970161;28;20392;-62
2021/03/17 12:23:12;;;;;;;9.65;4.15;;;;;;;;;;4968409;28;20049;-63
2021/03/17 12:25:40;;;;;;;11.60;4.82;;;;;;;;;;4963054;28;20058;-63
2021/03/17 12:28:08;;;;;;;11.20;4.82;;;;;;;;;;4966771;28;20454;-63
2021/03/17 12:30:36;;;;;;;12.82;4.40;;;;;;;;;;4971069;28;20167;-62
2021/03/17 12:33:05;;;;;;;9.30;4.10;;;;;;;;;;4970535;28;20054;-62
2021/03/17 12:35:33;;;;;;;17.10;4.25;;;;;;;;;;4971628;28;20843;-62
2021/03/17 12:38:01;;;;;;;9.27;4.20;;;;;;;;;;4968513;28;20051;-62
2021/03/17 12:40:31;;;;;;;10.45;4.45;;;;;;;;;;4966255;28;20059;-62
2021/03/17 12:42:59;;;;;;;9.73;4.97;;;;;;;;;;4969318;28;20094;-62
2021/03/17 12:45:42;;;;;;;11.52;4.80;;;;;;;;;;4964045;28;20047;-62
2021/03/17 12:48:10;;;;;;;8.77;4.05;;;;;;;;;;4970960;28;20142;-62
2021/03/17 12:50:38;;;;;;;9.10;4.03;;;;;;;;;;4969460;28;20498;-62
2021/03/17 12:53:06;;;;;;;7.78;3.55;;;;;;;;;;4956907;28;20078;-62
2021/03/17 12:55:35;;;;;;;6.85;3.17;;;;;;;;;;4968764;28;20059;-62
2021/03/17 12:58:03;;;;;;;4.57;2.80;;;;;;;;;;4969330;28;20562;-63
2021/03/17 13:00:31;;;;;;;7.78;3.30;;;;;;;;;;4969618;28;20182;-62
2021/03/17 13:02:59;;;;;;;5.43;2.75;;;;;;;;;;4969487;28;20424;-62
2021/03/17 13:05:27;;;;;;;8.50;3.65;;;;;;;;;;4970152;28;20054;-62
2021/03/17 13:07:57;;;;;;;8.65;3.85;;;;;;;;;;4969032;28;20076;-63
2021/03/17 13:10:25;;;;;;;10.95;4.25;;;;;;;;;;4963109;28;20102;-63
2021/03/17 13:12:54;;;;;;;12.38;4.55;;;;;;;;;;4969046;28;20050;-62
2021/03/17 13:15:22;;;;;;;9.02;4.32;;;;;;;;;;4968473;28;20483;-63
2021/03/17 13:17:50;;;;;;;10.05;4.65;;;;;;;;;;4969746;28;20499;-63
2021/03/17 13:20:20;;;;;;;12.63;5.00;;;;;;;;;;4970357;28;20043;-63
2021/03/17 13:22:49;;;;;;;13.32;4.97;;;;;;;;;;4973135;28;20149;-62
2021/03/17 13:25:17;;;;;;;9.18;5.50;;;;;;;;;;4960628;28;20050;-62
2021/03/17 13:27:46;;;;;;;13.23;5.55;;;;;;;;;;4973260;28;20058;-63
2021/03/17 13:30:15;;;;;;;13.32;5.13;;;;;;;;;;4971127;28;20055;-63
2021/03/17 13:32:43;;;;;;;16.55;6.20;;;;;;;;;;4974840;28;20109;-62
2021/03/17 13:35:12;;;;;;;11.27;5.85;;;;;;;;;;4972774;28;20495;-62
2021/03/17 13:37:40;;;;;;;11.27;5.68;;;;;;;;;;4957599;28;20414;-62
2021/03/17 13:40:09;;;;;;;18.20;5.72;;;;;;;;;;4973608;28;20042;-62
2021/03/17 13:42:38;;;;;;;11.57;5.05;;;;;;;;;;4976458;28;20086;-62
2021/03/17 13:45:06;;;;;;;8.68;4.95;;;;;;;;;;4975669;28;20050;-62
2021/03/17 13:47:35;;;;;;;10.80;4.05;;;;;;;;;;4975420;28;20089;-63
2021/03/17 13:50:05;;;;;;;10.48;4.10;;;;;;;;;;4976524;28;20082;-63
2021/03/17 13:52:33;;;;;;;7.35;4.05;;;;;;;;;;4967982;28;20077;-62
2021/03/17 13:55:01;;;;;;;9.52;4.32;;;;;;;;;;4974933;28;20051;-62
2021/03/17 13:57:28;;;;;;;10.30;4.10;;;;;;;;;;4973592;28;20070;-63
2021/03/17 13:59:57;;;;;;;8.30;3.58;;;;;;;;;;4975016;28;20125;-62
2021/03/17 14:02:25;;;;;;;6.10;3.58;;;;;;;;;;4972756;28;20069;-62
2021/03/17 14:04:53;;;;;;;8.32;3.90;;;;;;;;;;4973980;28;20069;-62
2021/03/17 14:07:21;;;;;;;9.27;3.97;;;;;;;;;;4976098;28;20046;-62
2021/03/17 14:09:49;;;;;;;6.90;3.55;;;;;;;;;;4974519;28;20495;-62
2021/03/17 14:12:17;;;;;;;9.38;4.50;;;;;;;;;;4962701;28;20054;-62
2021/03/17 14:14:44;;;;;;;6.72;3.88;;;;;;;;;;4974523;28;20050;-62
2021/03/17 14:17:12;;;;;;;6.43;4.13;;;;;;;;;;4967822;28;20137;-62
2021/03/17 14:19:40;;;;;;;6.90;4.30;;;;;;;;;;4980659;28;20058;-62
2021/03/17 14:22:09;;;;;;;10.10;3.80;;;;;;;;;;4978172;28;20058;-62
2021/03/17 14:24:44;;;;;;;8.85;3.80;;;;;;;;;;4974376;28;20069;-62
2021/03/17 14:27:12;;;;;;;10.85;3.85;;;;;;;;;;4969414;28;20510;-62
2021/03/17 14:29:40;;;;;;;7.85;4.10;;;;;;;;;;4973011;28;20130;-62
2021/03/17 14:32:07;;;;;;;5.65;3.40;;;;;;;;;;4957674;28;20113;-62
2021/03/17 14:34:35;;;;;;;6.47;3.15;;;;;;;;;;4972411;28;20483;-62
2021/03/17 14:37:03;;;;;;;6.60;3.47;;;;;;;;;;4974832;28;20065;-62
2021/03/17 14:39:32;;;;;;;5.80;2.45;;;;;;;;;;4973837;28;20085;-62
2021/03/17 14:42:00;;;;;;;6.20;2.60;;;;;;;;;;4973455;28;20057;-62
2021/03/17 14:44:40;;;;;;;7.60;2.63;;;;;;;;;;4968256;28;20054;-62
2021/03/17 14:47:08;;;;;;;6.05;2.00;;;;;;;;;;4963139;28;20038;-62
2021/03/17 14:49:36;;;;;;;4.82;2.05;;;;;;;;;;4972989;28;20097;-62